Orlando, West Virginia
Current Conditions -  °F | °C
As of 8:15 AM on Thursday 30 Oct 2014 (Local Time) from KW22 Reporting Station
Overcast Overcast  
Wind Chill: 41°   Ceiling: 2200
Heat Index: 41°   Visibility: 10mi
Dew Point: 34°   Wind: 0mph
Humidity: 76%   Direction: NA
Pressure: 30.1"   Gusts: NA
Location:  38.87°N, 80.59°W
Report Text: KW22 301215Z AUTO 00000KT 10SM BKN022 BKN026 OVC040 05/01 A3010 RMK AO2
Loading
Personal Weather Stations






























Interactive Weather Map
Tropical Storm Tracking
New forecast layout! Learn more

10-Day Weather Forecast

Advertisements
Track Severe Weather on mobile